createdAt,value
2022-12-08T00:03:16.651Z,2.44
2022-12-08T00:07:43.383Z,2.52
2022-12-08T00:11:51.801Z,2.56
2022-12-08T00:16:04.320Z,2.58
2022-12-08T00:20:13.669Z,2.57
2022-12-08T00:24:21.740Z,2.55
2022-12-08T00:28:29.644Z,2.53
2022-12-08T00:32:36.816Z,2.52
2022-12-08T00:36:46.203Z,2.55
2022-12-08T00:40:53.608Z,2.59
2022-12-08T00:45:01.484Z,2.61
2022-12-08T00:49:10.651Z,2.63
2022-12-08T00:53:18.100Z,2.64
2022-12-08T00:57:25.957Z,2.62
2022-12-08T01:01:33.870Z,2.58
2022-12-08T01:05:42.253Z,2.54
2022-12-08T01:09:49.694Z,2.53
2022-12-08T01:13:57.265Z,2.53
2022-12-08T01:18:04.838Z,2.53
2022-12-08T01:22:12.412Z,2.52
2022-12-08T01:26:21.843Z,2.51
2022-12-08T01:30:29.858Z,2.46
2022-12-08T01:34:36.992Z,2.39
2022-12-08T01:38:44.627Z,2.32
2022-12-08T01:42:52.791Z,2.26
2022-12-08T01:47:00.506Z,2.25
2022-12-08T01:51:08.941Z,2.24
2022-12-08T01:55:20.812Z,2.27
2022-12-08T01:59:28.880Z,2.28
2022-12-08T02:03:39.868Z,2.29
2022-12-08T02:07:49.094Z,2.30
2022-12-08T02:11:59.255Z,2.27
2022-12-08T02:16:10.184Z,2.23
2022-12-08T02:20:35.683Z,2.22
2022-12-08T02:24:48.522Z,2.25
2022-12-08T02:29:23.357Z,2.28
2022-12-08T02:34:00.399Z,2.30
2022-12-08T02:38:14.645Z,2.33
2022-12-08T02:42:28.072Z,2.33
2022-12-08T02:46:39.616Z,2.32
2022-12-08T02:50:47.721Z,2.29
2022-12-08T02:54:58.363Z,2.24
2022-12-08T02:59:15.386Z,2.19
2022-12-08T03:03:30.765Z,2.18
2022-12-08T03:07:42.337Z,2.23
2022-12-08T03:11:54.534Z,2.27
2022-12-08T03:16:03.979Z,2.28
2022-12-08T03:20:14.827Z,2.30
2022-12-08T03:24:25.124Z,2.30
2022-12-08T03:28:33.015Z,2.30
2022-12-08T03:32:48.006Z,2.30
2022-12-08T03:36:56.146Z,2.34
2022-12-08T03:41:22.357Z,2.42
2022-12-08T03:45:30.930Z,2.50
2022-12-08T03:49:39.354Z,2.52
2022-12-08T03:53:48.402Z,2.50
2022-12-08T03:57:56.570Z,2.47
2022-12-08T04:02:04.197Z,2.44
2022-12-08T04:06:13.023Z,2.44
2022-12-08T04:10:20.761Z,2.42
2022-12-08T04:14:28.072Z,2.44
2022-12-08T04:18:36.211Z,2.44
2022-12-08T04:22:44.349Z,2.42
2022-12-08T04:26:52.277Z,2.36
2022-12-08T04:31:02.316Z,2.28
2022-12-08T04:35:11.766Z,2.24
2022-12-08T04:39:21.438Z,2.25
2022-12-08T04:43:29.452Z,2.29
2022-12-08T04:47:37.402Z,2.30
2022-12-08T04:51:45.474Z,2.31
2022-12-08T04:55:53.316Z,2.31
2022-12-08T05:00:01.933Z,2.27
2022-12-08T05:04:10.581Z,2.23
2022-12-08T05:08:18.277Z,2.17
2022-12-08T05:12:25.472Z,2.13
2022-12-08T05:16:33.585Z,2.11
2022-12-08T05:20:41.235Z,2.13
2022-12-08T05:24:48.642Z,2.14
2022-12-08T05:28:56.162Z,2.13
2022-12-08T05:33:03.798Z,2.09
2022-12-08T05:37:11.316Z,2.05
2022-12-08T05:41:20.444Z,2.00
2022-12-08T05:45:28.206Z,1.96
2022-12-08T05:49:36.502Z,1.94
2022-12-08T05:53:44.197Z,1.95
2022-12-08T05:57:51.860Z,2.00
2022-12-08T06:02:00.704Z,2.01
2022-12-08T06:06:09.228Z,2.03
2022-12-08T06:10:17.477Z,2.04
2022-12-08T06:14:25.055Z,2.04
2022-12-08T06:18:33.167Z,2.03
2022-12-08T06:22:41.816Z,2.01
2022-12-08T06:26:49.520Z,2.04
2022-12-08T06:30:57.712Z,2.05
2022-12-08T06:35:05.720Z,2.04
2022-12-08T06:39:13.706Z,2.02
2022-12-08T06:43:22.298Z,2.01
2022-12-08T06:47:30.660Z,1.99
2022-12-08T06:51:38.555Z,1.98
2022-12-08T06:55:59.340Z,2.00
2022-12-08T07:00:09.926Z,2.04
2022-12-08T07:04:18.519Z,2.10
2022-12-08T07:08:26.052Z,2.15
2022-12-08T07:12:34.581Z,2.19
2022-12-08T07:16:42.359Z,2.20
2022-12-08T07:20:50.003Z,2.20
2022-12-08T07:24:57.328Z,2.21
2022-12-08T07:29:05.134Z,2.27
2022-12-08T07:33:13.137Z,2.33
2022-12-08T07:37:21.050Z,2.39
2022-12-08T07:41:29.716Z,2.43
2022-12-08T07:45:37.556Z,2.48
2022-12-08T07:49:45.396Z,2.56
2022-12-08T07:53:55.001Z,2.68
2022-12-08T07:58:03.347Z,2.83
2022-12-08T08:02:25.964Z,2.96
2022-12-08T08:06:34.465Z,3.10
2022-12-08T08:10:42.313Z,3.25
2022-12-08T08:14:50.196Z,3.36
2022-12-08T08:18:58.210Z,3.46
2022-12-08T08:23:07.711Z,3.54
2022-12-08T08:27:15.973Z,3.61
2022-12-08T08:31:29.522Z,3.65
2022-12-08T08:35:38.269Z,3.71
2022-12-08T08:39:46.130Z,3.75
2022-12-08T08:43:54.095Z,3.81
2022-12-08T08:48:01.948Z,3.88
2022-12-08T08:52:12.176Z,3.93
2022-12-08T08:56:21.786Z,3.96
2022-12-08T09:00:29.696Z,4.01
2022-12-08T09:04:37.319Z,4.06
2022-12-08T09:08:45.852Z,4.11
2022-12-08T09:12:53.722Z,4.16
2022-12-08T09:17:02.841Z,4.21
2022-12-08T09:21:15.385Z,4.28
2022-12-08T09:25:22.711Z,4.33
2022-12-08T09:29:35.643Z,4.38
2022-12-08T09:33:45.155Z,4.38
2022-12-08T09:37:52.849Z,4.39
2022-12-08T09:42:03.496Z,4.40
2022-12-08T09:46:14.306Z,4.42
2022-12-08T09:50:31.891Z,4.41
2022-12-08T09:54:39.333Z,4.45
2022-12-08T09:58:53.868Z,4.51
2022-12-08T10:03:01.685Z,4.60
2022-12-08T10:07:18.108Z,4.68
2022-12-08T10:11:30.934Z,4.74
2022-12-08T10:15:45.373Z,4.78
2022-12-08T10:19:55.464Z,4.80
2022-12-08T10:24:07.885Z,4.78
2022-12-08T10:28:17.345Z,4.79
2022-12-08T10:32:27.012Z,4.82
2022-12-08T10:36:51.978Z,4.85
2022-12-08T10:41:06.213Z,4.90
2022-12-08T10:45:26.774Z,4.95
2022-12-08T10:49:36.190Z,5.01
2022-12-08T10:53:49.615Z,5.02
2022-12-08T10:57:57.696Z,5.02
2022-12-08T11:02:09.548Z,5.02
2022-12-08T11:06:21.423Z,5.04
2022-12-08T11:10:37.171Z,5.06
2022-12-08T11:14:53.264Z,5.09
2022-12-08T11:19:01.129Z,5.11
2022-12-08T11:23:22.386Z,5.12
2022-12-08T11:27:30.774Z,5.14
2022-12-08T11:31:42.645Z,5.17
2022-12-08T11:35:53.147Z,5.21
2022-12-08T11:40:05.525Z,5.23
2022-12-08T11:44:27.809Z,5.23
2022-12-08T11:48:39.681Z,5.21
2022-12-08T11:52:50.667Z,5.18
2022-12-08T11:57:00.204Z,5.11
2022-12-08T12:01:10.318Z,5.06
2022-12-08T12:05:47.584Z,5.02
2022-12-08T12:10:11.804Z,5.01
2022-12-08T12:14:33.130Z,5.04
2022-12-08T12:18:46.892Z,5.11
2022-12-08T12:22:59.498Z,5.22
2022-12-08T12:27:21.244Z,5.32
2022-12-08T12:31:31.283Z,5.42
2022-12-08T12:35:42.377Z,5.49
2022-12-08T12:39:56.063Z,5.53
2022-12-08T12:44:37.972Z,5.55
2022-12-08T12:48:45.654Z,5.56
2022-12-08T12:52:53.303Z,5.58
2022-12-08T12:57:22.636Z,5.61
2022-12-08T13:01:57.216Z,5.63
2022-12-08T13:06:09.933Z,5.66
2022-12-08T13:10:23.415Z,5.71
2022-12-08T13:14:33.729Z,5.75
2022-12-08T13:18:44.248Z,5.74
2022-12-08T13:23:26.857Z,5.71
2022-12-08T13:27:37.942Z,5.68
2022-12-08T13:31:50.639Z,5.65
2022-12-08T13:36:12.449Z,5.57
2022-12-08T13:40:22.977Z,5.47
2022-12-08T13:58:06.581Z,5.08
2022-12-08T14:02:20.204Z,5.06
2022-12-08T14:06:31.892Z,5.01
2022-12-08T14:10:40.119Z,4.94
2022-12-08T14:15:05.293Z,4.86
2022-12-08T14:19:24.642Z,4.78
2022-12-08T14:23:33.354Z,4.71
2022-12-08T14:27:41.176Z,4.64
2022-12-08T14:31:49.097Z,4.55
2022-12-08T14:35:57.450Z,4.48
2022-12-08T14:40:08.278Z,4.43
2022-12-08T14:44:25.101Z,4.40
2022-12-08T14:48:44.951Z,4.36
2022-12-08T14:52:52.612Z,4.27
2022-12-08T14:57:01.832Z,4.18
2022-12-08T15:01:10.469Z,4.10
2022-12-08T15:05:20.879Z,4.04
2022-12-08T15:09:36.897Z,3.99
2022-12-08T15:13:49.934Z,3.93
2022-12-08T15:18:07.927Z,3.87
2022-12-08T15:22:19.501Z,3.85
2022-12-08T15:26:29.127Z,3.86
2022-12-08T15:30:36.433Z,3.87
2022-12-08T15:34:44.124Z,3.87
2022-12-08T15:38:53.259Z,3.87
2022-12-08T15:43:01.555Z,3.91
2022-12-08T15:47:12.004Z,3.95
2022-12-08T15:51:20.160Z,4.00
2022-12-08T15:55:28.256Z,4.07
2022-12-08T15:59:36.315Z,4.17
2022-12-08T16:04:25.457Z,4.27
2022-12-08T16:08:44.672Z,4.33
2022-12-08T16:17:24.680Z,4.28
2022-12-08T16:22:04.673Z,4.21
2022-12-08T16:26:28.653Z,4.12
2022-12-08T16:30:28.668Z,4.03
2022-12-08T16:34:36.328Z,3.94
2022-12-08T16:38:44.293Z,3.85
2022-12-08T16:42:52.153Z,3.76
2022-12-08T16:46:59.711Z,3.68
2022-12-08T16:51:10.569Z,3.59
2022-12-08T16:55:20.165Z,3.51
2022-12-08T16:59:28.382Z,3.44
2022-12-08T17:03:35.895Z,3.35
2022-12-08T17:07:44.165Z,3.27
2022-12-08T17:11:51.587Z,3.15
2022-12-08T17:15:59.582Z,3.00
2022-12-08T17:20:09.819Z,2.86
2022-12-08T17:24:21.918Z,2.73
2022-12-08T17:28:51.900Z,2.59
2022-12-08T17:32:58.766Z,2.47
2022-12-08T17:37:06.840Z,2.36
2022-12-08T17:41:15.359Z,2.29
2022-12-08T17:45:23.801Z,2.20
2022-12-08T17:49:33.048Z,2.12
2022-12-08T17:53:41.176Z,2.02
2022-12-08T17:57:49.098Z,1.90
2022-12-08T18:01:57.004Z,1.80
2022-12-08T18:06:09.185Z,1.72
2022-12-08T18:10:16.665Z,1.67
2022-12-08T18:14:24.890Z,1.62
2022-12-08T18:18:32.940Z,1.58
2022-12-08T18:22:41.080Z,1.52
2022-12-08T18:26:49.449Z,1.47
2022-12-08T18:30:56.719Z,1.43
2022-12-08T18:35:04.692Z,1.40
2022-12-08T18:39:24.260Z,1.36
2022-12-08T18:43:31.892Z,1.37
2022-12-08T18:47:40.838Z,1.42
2022-12-08T18:51:48.753Z,1.46
2022-12-08T18:55:56.148Z,1.49
2022-12-08T19:00:03.875Z,1.48
2022-12-08T19:04:28.854Z,1.48
2022-12-08T19:08:37.404Z,1.46
2022-12-08T19:12:45.469Z,1.44
2022-12-08T19:16:54.796Z,1.43
2022-12-08T19:21:02.368Z,1.47
2022-12-08T19:25:12.005Z,1.53
2022-12-08T19:29:20.495Z,1.57
2022-12-08T19:33:29.411Z,1.59
2022-12-08T19:37:37.221Z,1.60
2022-12-08T19:42:03.810Z,1.62
2022-12-08T19:46:12.294Z,1.67
2022-12-08T19:50:40.018Z,1.73
2022-12-08T19:54:47.416Z,1.79
2022-12-08T19:58:54.791Z,1.86
2022-12-08T20:03:04.820Z,1.90
2022-12-08T20:07:15.899Z,1.91
2022-12-08T20:11:23.221Z,1.90
2022-12-08T20:15:31.041Z,1.87
2022-12-08T20:19:38.755Z,1.80
2022-12-08T20:23:50.310Z,1.73
2022-12-08T20:27:59.291Z,1.67
2022-12-08T20:32:07.642Z,1.64
2022-12-08T20:36:19.810Z,1.60
2022-12-08T20:40:27.844Z,1.59
2022-12-08T20:44:35.787Z,1.59
2022-12-08T20:48:43.645Z,1.59
2022-12-08T20:52:51.481Z,1.56
2022-12-08T20:56:59.038Z,1.48
2022-12-08T21:01:13.288Z,1.42
2022-12-08T21:05:21.727Z,1.35
2022-12-08T21:09:29.917Z,1.28
2022-12-08T21:13:39.090Z,1.25
2022-12-08T21:17:47.732Z,1.22
2022-12-08T21:21:56.091Z,1.24
2022-12-08T21:26:04.467Z,1.27
2022-12-08T21:30:14.462Z,1.30
2022-12-08T21:34:22.164Z,1.31
2022-12-08T21:38:30.382Z,1.30
2022-12-08T21:42:45.037Z,1.27
2022-12-08T21:46:52.795Z,1.18
2022-12-08T21:51:06.992Z,1.09
2022-12-08T21:55:15.794Z,1.05
2022-12-08T21:59:23.600Z,1.03
2022-12-08T22:03:31.290Z,1.02
2022-12-08T22:07:42.540Z,1.00
2022-12-08T22:11:50.194Z,0.98
2022-12-08T22:16:01.694Z,0.98
2022-12-08T22:20:13.428Z,0.99
2022-12-08T22:24:21.783Z,1.00
2022-12-08T22:28:32.321Z,1.04
2022-12-08T22:32:39.985Z,1.12
2022-12-08T22:36:49.294Z,1.23
2022-12-08T22:40:57.569Z,1.32
2022-12-08T22:45:05.617Z,1.40
2022-12-08T22:49:13.080Z,1.41
2022-12-08T22:53:20.859Z,1.40
2022-12-08T22:57:28.638Z,1.39
2022-12-08T23:01:37.886Z,1.36
2022-12-08T23:05:45.789Z,1.33
2022-12-08T23:09:53.609Z,1.30
2022-12-08T23:14:07.825Z,1.32
2022-12-08T23:18:19.344Z,1.39
2022-12-08T23:22:28.091Z,1.49
2022-12-08T23:26:36.351Z,1.56
2022-12-08T23:30:44.436Z,1.59
2022-12-08T23:34:52.371Z,1.60
2022-12-08T23:39:00.229Z,1.60
2022-12-08T23:43:09.318Z,1.58
2022-12-08T23:47:17.304Z,1.59
2022-12-08T23:51:25.138Z,1.62
2022-12-08T23:55:32.995Z,1.68
2022-12-08T23:59:41.032Z,1.74
